Cave Junction, OR (97523)

9:42 PM PDT on March 27, 2015 (GMT -0700)
OREGON BUILDERS GUILD LLC 97523 | | Change Station
CLOSE
Current Station
Personal Weather Station
Location: Cave Junction, OR
Elevation: 1343 ft
Nearby Weather Stations

Elev 1343 ft 42.16 °N, 123.65 °W | Updated 8 minutes ago

Mostly Cloudy
Mostly Cloudy
50.4 °F
Feels Like 50.4 °F
N
1.0
Wind Variable Wind from NNE

Today
High -- | Low -- °F
--% Chance of Precip.
Yesterday
High -- | Low -- °F
Precip. -- in
7:05 AM 7:34 PM
First Quarter, 59% visible
Pressure 30.31 in
Visibility 5.0 miles
Clouds Mostly Cloudy 200 ft
Overcast 1500 ft
Dew Point 46 °F
Humidity 84%
Rainfall 0.02 in
Snow Depth Not available.
UV 0 out of 12
Pollen 9.70 out of 12
Air Quality Not available.
Flu Activity Not available.
SPECI KBOK 280419Z AUTO 00000KT 5SM BR BKN002 OVC015 11/11 A3031 RMK AO2 CIG 001V005 RAE12 P0000

More Conditions Fewer Conditions

Pressure 30.31 in
Visibility 5.0 miles
Clouds Mostly Cloudy 200 ft
Overcast 1500 ft
Dew Point 46 °F
Humidity 84%
Rainfall 0.02 in
Snow Depth Not available.
UV 0 out of 12
Pollen 9.70 out of 12
Air Quality Not available.
Flu Activity Not available.
SPECI KBOK 280419Z AUTO 00000KT 5SM BR BKN002 OVC015 11/11 A3031 RMK AO2 CIG 001V005 RAE12 P0000

More Conditions Fewer Conditions

10-Day Weather Forecast

Almanac

Astronomy

Mar. 27, 2015 Rise Set
Actual Time
Civil Twilight
Nautical Twilight
Astronomical Twilight
Moon
Length of Visible Light
Length of Day
Tomorrow will be .
, % of the Moon is Illuminated

Today's Extremes

State Highs State Lows

Community

WunderPhotos

Upload Photos

1,808,928 photos uploaded!

WunderBlogs® & News

Nearby

Air Quality

  Air Quality AQ Index Pollutant
Not available.

Snow Depth

Station Depth Elevation

Earthquake Activity

City Distance Mag. Time & Date
Minimum magnitude displayed is 2.5.

Coastal Water Temperatures

Place Temperature

Stations

Nearby Weather Stations

Station Location Temp. Windchill Dew Point Humidity Wind Precip. Elev Updated Type